sensor_id;sensor_type;location;lat;lon;timestamp;pressure;altitude;pressure_sealevel;temperature;humidity
35519;BME280;21627;48.216;16.482;2023-01-30T00:01:40;100391.78;;;-5.96;100.00
35519;BME280;21627;48.216;16.482;2023-01-30T00:04:10;100374.59;;;-6.01;100.00
35519;BME280;21627;48.216;16.482;2023-01-30T00:06:40;100388.34;;;-6.08;100.00
35519;BME280;21627;48.216;16.482;2023-01-30T00:09:12;100377.25;;;-6.22;100.00
35519;BME280;21627;48.216;16.482;2023-01-30T00:11:40;100390.06;;;-6.19;100.00
35519;BME280;21627;48.216;16.482;2023-01-30T00:14:08;100389.81;;;-6.22;100.00
35519;BME280;21627;48.216;16.482;2023-01-30T00:16:36;100389.63;;;-6.13;100.00
35519;BME280;21627;48.216;16.482;2023-01-30T00:19:03;100377.41;;;-6.31;100.00
35519;BME280;21627;48.216;16.482;2023-01-30T00:21:30;100381.44;;;-6.33;100.00
35519;BME280;21627;48.216;16.482;2023-01-30T00:23:57;100378.47;;;-6.39;100.00
35519;BME280;21627;48.216;16.482;2023-01-30T00:26:26;100365.66;;;-6.42;100.00
35519;BME280;21627;48.216;16.482;2023-01-30T00:28:54;100361.69;;;-6.50;100.00
35519;BME280;21627;48.216;16.482;2023-01-30T00:31:21;100366.56;;;-6.51;100.00
35519;BME280;21627;48.216;16.482;2023-01-30T00:33:48;100360.53;;;-6.54;100.00
35519;BME280;21627;48.216;16.482;2023-01-30T00:36:16;100363.56;;;-6.58;100.00
35519;BME280;21627;48.216;16.482;2023-01-30T00:38:43;100349.47;;;-6.56;100.00
35519;BME280;21627;48.216;16.482;2023-01-30T00:41:10;100338.19;;;-6.61;100.00
35519;BME280;21627;48.216;16.482;2023-01-30T00:43:39;100341.94;;;-6.56;100.00
35519;BME280;21627;48.216;16.482;2023-01-30T00:46:29;100336.69;;;-6.59;100.00
35519;BME280;21627;48.216;16.482;2023-01-30T00:49:15;100334.34;;;-6.67;100.00
35519;BME280;21627;48.216;16.482;2023-01-30T00:51:43;100323.69;;;-6.75;100.00
35519;BME280;21627;48.216;16.482;2023-01-30T00:54:10;100330.34;;;-6.76;100.00
35519;BME280;21627;48.216;16.482;2023-01-30T00:56:38;100327.72;;;-6.77;100.00
35519;BME280;21627;48.216;16.482;2023-01-30T00:59:05;100319.53;;;-6.75;100.00
35519;BME280;21627;48.216;16.482;2023-01-30T01:01:35;100323.78;;;-6.73;100.00
35519;BME280;21627;48.216;16.482;2023-01-30T01:04:04;100315.25;;;-6.76;100.00
35519;BME280;21627;48.216;16.482;2023-01-30T01:06:33;100313.63;;;-6.75;100.00
35519;BME280;21627;48.216;16.482;2023-01-30T01:09:00;100294.44;;;-6.85;100.00
35519;BME280;21627;48.216;16.482;2023-01-30T01:11:27;100284.38;;;-6.85;100.00
35519;BME280;21627;48.216;16.482;2023-01-30T01:14:00;100292.75;;;-6.74;100.00
35519;BME280;21627;48.216;16.482;2023-01-30T01:16:29;100272.41;;;-6.77;100.00
35519;BME280;21627;48.216;16.482;2023-01-30T01:19:00;100280.00;;;-6.65;100.00
35519;BME280;21627;48.216;16.482;2023-01-30T01:21:28;100285.22;;;-6.74;100.00
35519;BME280;21627;48.216;16.482;2023-01-30T01:23:58;100271.00;;;-6.73;100.00
35519;BME280;21627;48.216;16.482;2023-01-30T01:26:26;100252.81;;;-6.81;100.00
35519;BME280;21627;48.216;16.482;2023-01-30T01:28:57;100273.00;;;-6.69;100.00
35519;BME280;21627;48.216;16.482;2023-01-30T01:31:25;100258.19;;;-6.77;100.00
35519;BME280;21627;48.216;16.482;2023-01-30T01:33:52;100261.75;;;-6.63;100.00
35519;BME280;21627;48.216;16.482;2023-01-30T01:36:20;100255.50;;;-6.68;100.00
35519;BME280;21627;48.216;16.482;2023-01-30T01:39:07;100266.75;;;-6.53;100.00
35519;BME280;21627;48.216;16.482;2023-01-30T01:41:34;100264.97;;;-6.54;100.00
35519;BME280;21627;48.216;16.482;2023-01-30T01:44:07;100258.13;;;-6.44;100.00
35519;BME280;21627;48.216;16.482;2023-01-30T01:46:55;100245.56;;;-6.44;100.00
35519;BME280;21627;48.216;16.482;2023-01-30T01:49:34;100217.69;;;-6.58;100.00
35519;BME280;21627;48.216;16.482;2023-01-30T01:52:12;100236.94;;;-6.36;100.00
35519;BME280;21627;48.216;16.482;2023-01-30T01:54:58;100234.69;;;-6.21;100.00
35519;BME280;21627;48.216;16.482;2023-01-30T01:58:02;100221.44;;;-6.19;100.00
35519;BME280;21627;48.216;16.482;2023-01-30T02:00:31;100217.97;;;-6.09;100.00
35519;BME280;21627;48.216;16.482;2023-01-30T02:03:03;100206.56;;;-6.16;100.00
35519;BME280;21627;48.216;16.482;2023-01-30T02:05:35;100216.09;;;-6.00;100.00
35519;BME280;21627;48.216;16.482;2023-01-30T02:11:17;100189.06;;;-6.02;100.00
35519;BME280;21627;48.216;16.482;2023-01-30T02:13:48;100202.13;;;-5.96;100.00
35519;BME280;21627;48.216;16.482;2023-01-30T02:16:16;100168.28;;;-6.00;100.00
35519;BME280;21627;48.216;16.482;2023-01-30T02:18:45;100181.31;;;-5.94;100.00
35519;BME280;21627;48.216;16.482;2023-01-30T02:22:01;100186.09;;;-5.85;100.00
35519;BME280;21627;48.216;16.482;2023-01-30T02:24:53;100175.41;;;-5.94;100.00
35519;BME280;21627;48.216;16.482;2023-01-30T02:34:05;100173.88;;;-6.04;100.00
35519;BME280;21627;48.216;16.482;2023-01-30T02:37:08;100164.47;;;-6.06;100.00
35519;BME280;21627;48.216;16.482;2023-01-30T02:43:12;100157.00;;;-6.17;100.00
35519;BME280;21627;48.216;16.482;2023-01-30T02:45:57;100151.88;;;-6.06;100.00
35519;BME280;21627;48.216;16.482;2023-01-30T02:51:22;100135.75;;;-6.20;100.00
35519;BME280;21627;48.216;16.482;2023-01-30T02:53:50;100131.50;;;-6.21;100.00
35519;BME280;21627;48.216;16.482;2023-01-30T02:56:18;100133.81;;;-6.24;100.00
35519;BME280;21627;48.216;16.482;2023-01-30T02:58:51;100126.34;;;-6.23;100.00
35519;BME280;21627;48.216;16.482;2023-01-30T03:04:54;100133.00;;;-6.35;100.00
35519;BME280;21627;48.216;16.482;2023-01-30T03:13:47;100125.13;;;-6.28;100.00
35519;BME280;21627;48.216;16.482;2023-01-30T03:19:00;100106.44;;;-6.32;100.00
35519;BME280;21627;48.216;16.482;2023-01-30T03:21:27;100110.78;;;-6.41;100.00
35519;BME280;21627;48.216;16.482;2023-01-30T03:23:55;100107.19;;;-6.44;100.00
35519;BME280;21627;48.216;16.482;2023-01-30T03:26:26;100111.44;;;-6.43;100.00
35519;BME280;21627;48.216;16.482;2023-01-30T03:28:56;100095.38;;;-6.45;100.00
35519;BME280;21627;48.216;16.482;2023-01-30T03:31:24;100108.19;;;-6.42;100.00
35519;BME280;21627;48.216;16.482;2023-01-30T03:33:51;100106.88;;;-6.37;100.00
35519;BME280;21627;48.216;16.482;2023-01-30T03:36:19;100098.34;;;-6.39;100.00
35519;BME280;21627;48.216;16.482;2023-01-30T03:38:50;100096.81;;;-6.37;100.00
35519;BME280;21627;48.216;16.482;2023-01-30T03:41:18;100092.88;;;-6.34;100.00
35519;BME280;21627;48.216;16.482;2023-01-30T03:43:46;100081.94;;;-6.34;100.00
35519;BME280;21627;48.216;16.482;2023-01-30T03:46:13;100072.63;;;-6.35;100.00
35519;BME280;21627;48.216;16.482;2023-01-30T03:48:43;100070.22;;;-6.34;100.00
35519;BME280;21627;48.216;16.482;2023-01-30T03:51:11;100081.06;;;-6.35;100.00
35519;BME280;21627;48.216;16.482;2023-01-30T03:53:38;100079.22;;;-6.37;100.00
35519;BME280;21627;48.216;16.482;2023-01-30T03:56:05;100077.56;;;-6.37;100.00
35519;BME280;21627;48.216;16.482;2023-01-30T03:58:32;100071.88;;;-6.34;100.00
35519;BME280;21627;48.216;16.482;2023-01-30T04:01:00;100054.94;;;-6.37;100.00
35519;BME280;21627;48.216;16.482;2023-01-30T04:03:27;100069.69;;;-6.29;100.00
35519;BME280;21627;48.216;16.482;2023-01-30T04:05:54;100062.16;;;-6.29;100.00
35519;BME280;21627;48.216;16.482;2023-01-30T04:08:25;100058.97;;;-6.27;100.00
35519;BME280;21627;48.216;16.482;2023-01-30T04:10:52;100046.59;;;-6.24;100.00
35519;BME280;21627;48.216;16.482;2023-01-30T04:13:23;100049.78;;;-6.15;100.00
35519;BME280;21627;48.216;16.482;2023-01-30T04:15:50;100044.50;;;-6.06;100.00
35519;BME280;21627;48.216;16.482;2023-01-30T04:18:18;100042.78;;;-6.19;100.00
35519;BME280;21627;48.216;16.482;2023-01-30T04:20:45;100034.56;;;-6.28;100.00
35519;BME280;21627;48.216;16.482;2023-01-30T04:23:12;100038.72;;;-6.17;100.00
35519;BME280;21627;48.216;16.482;2023-01-30T04:25:39;100025.03;;;-6.20;100.00
35519;BME280;21627;48.216;16.482;2023-01-30T04:28:07;100035.63;;;-6.13;100.00
35519;BME280;21627;48.216;16.482;2023-01-30T04:30:34;100041.47;;;-6.14;100.00
35519;BME280;21627;48.216;16.482;2023-01-30T04:33:01;100034.78;;;-6.13;100.00
35519;BME280;21627;48.216;16.482;2023-01-30T04:35:31;100013.34;;;-6.20;100.00
35519;BME280;21627;48.216;16.482;2023-01-30T04:37:58;100014.97;;;-6.08;100.00
35519;BME280;21627;48.216;16.482;2023-01-30T04:40:25;100029.94;;;-5.98;100.00
35519;BME280;21627;48.216;16.482;2023-01-30T04:42:53;100008.53;;;-6.17;100.00
35519;BME280;21627;48.216;16.482;2023-01-30T04:45:20;100014.31;;;-6.06;100.00
35519;BME280;21627;48.216;16.482;2023-01-30T04:47:47;100014.97;;;-6.08;100.00
35519;BME280;21627;48.216;16.482;2023-01-30T04:50:15;100002.59;;;-6.05;100.00
35519;BME280;21627;48.216;16.482;2023-01-30T04:52:42;100022.94;;;-6.02;100.00
35519;BME280;21627;48.216;16.482;2023-01-30T04:55:09;100035.84;;;-5.98;100.00
35519;BME280;21627;48.216;16.482;2023-01-30T04:57:36;100022.72;;;-6.05;100.00
35519;BME280;21627;48.216;16.482;2023-01-30T05:00:04;100023.28;;;-6.10;100.00
35519;BME280;21627;48.216;16.482;2023-01-30T05:02:32;100017.91;;;-6.02;100.00
35519;BME280;21627;48.216;16.482;2023-01-30T05:04:59;100012.81;;;-5.91;100.00
35519;BME280;21627;48.216;16.482;2023-01-30T05:07:26;100017.50;;;-5.72;100.00
35519;BME280;21627;48.216;16.482;2023-01-30T05:09:54;100016.72;;;-5.46;100.00
35519;BME280;21627;48.216;16.482;2023-01-30T05:12:21;100014.84;;;-5.11;100.00
35519;BME280;21627;48.216;16.482;2023-01-30T05:14:48;100002.06;;;-5.01;100.00
35519;BME280;21627;48.216;16.482;2023-01-30T05:17:15;99992.66;;;-5.04;100.00
35519;BME280;21627;48.216;16.482;2023-01-30T05:19:42;99999.53;;;-5.01;100.00
35519;BME280;21627;48.216;16.482;2023-01-30T05:22:10;99980.06;;;-4.90;100.00
35519;BME280;21627;48.216;16.482;2023-01-30T05:24:38;99981.94;;;-4.48;100.00
35519;BME280;21627;48.216;16.482;2023-01-30T05:27:08;99967.63;;;-4.07;100.00
35519;BME280;21627;48.216;16.482;2023-01-30T05:29:39;99971.63;;;-3.83;100.00
35519;BME280;21627;48.216;16.482;2023-01-30T05:32:08;99976.78;;;-3.38;100.00
35519;BME280;21627;48.216;16.482;2023-01-30T05:34:36;99965.34;;;-2.89;100.00
35519;BME280;21627;48.216;16.482;2023-01-30T05:37:06;99954.50;;;-2.71;100.00
35519;BME280;21627;48.216;16.482;2023-01-30T05:39:35;99948.72;;;-2.39;100.00
35519;BME280;21627;48.216;16.482;2023-01-30T05:42:02;99959.72;;;-2.22;100.00
35519;BME280;21627;48.216;16.482;2023-01-30T05:44:30;99953.78;;;-1.91;100.00
35519;BME280;21627;48.216;16.482;2023-01-30T05:46:57;99941.75;;;-1.96;100.00
35519;BME280;21627;48.216;16.482;2023-01-30T05:49:26;99959.47;;;-1.96;100.00
35519;BME280;21627;48.216;16.482;2023-01-30T05:51:53;99965.00;;;-2.03;100.00
35519;BME280;21627;48.216;16.482;2023-01-30T05:54:20;99980.66;;;-1.79;100.00
35519;BME280;21627;48.216;16.482;2023-01-30T05:56:51;99980.41;;;-1.67;100.00
35519;BME280;21627;48.216;16.482;2023-01-30T05:59:19;99984.84;;;-1.63;100.00
35519;BME280;21627;48.216;16.482;2023-01-30T06:01:46;99967.00;;;-1.64;100.00
35519;BME280;21627;48.216;16.482;2023-01-30T06:04:13;99967.97;;;-1.62;100.00
35519;BME280;21627;48.216;16.482;2023-01-30T06:06:41;99965.75;;;-1.40;100.00
35519;BME280;21627;48.216;16.482;2023-01-30T06:09:09;99963.69;;;-1.47;100.00
35519;BME280;21627;48.216;16.482;2023-01-30T06:11:37;99948.03;;;-1.05;100.00
35519;BME280;21627;48.216;16.482;2023-01-30T06:14:04;99955.53;;;-0.91;100.00
35519;BME280;21627;48.216;16.482;2023-01-30T06:16:31;99968.25;;;-0.89;100.00
35519;BME280;21627;48.216;16.482;2023-01-30T06:18:59;99986.53;;;-0.96;100.00
35519;BME280;21627;48.216;16.482;2023-01-30T06:21:26;99983.63;;;-0.86;100.00
35519;BME280;21627;48.216;16.482;2023-01-30T06:23:53;99960.97;;;-0.83;100.00
35519;BME280;21627;48.216;16.482;2023-01-30T06:26:20;99971.56;;;-0.74;100.00
35519;BME280;21627;48.216;16.482;2023-01-30T06:28:48;99971.19;;;-0.81;100.00
35519;BME280;21627;48.216;16.482;2023-01-30T06:31:15;99968.50;;;-0.67;100.00
35519;BME280;21627;48.216;16.482;2023-01-30T06:33:47;99940.34;;;-0.71;100.00
35519;BME280;21627;48.216;16.482;2023-01-30T06:36:15;99959.81;;;-0.72;100.00
35519;BME280;21627;48.216;16.482;2023-01-30T06:38:42;99947.97;;;-0.71;100.00
35519;BME280;21627;48.216;16.482;2023-01-30T06:41:09;99944.16;;;-0.63;100.00
35519;BME280;21627;48.216;16.482;2023-01-30T06:43:36;99932.88;;;-0.68;100.00
35519;BME280;21627;48.216;16.482;2023-01-30T06:46:04;99918.91;;;-0.60;100.00
35519;BME280;21627;48.216;16.482;2023-01-30T06:48:31;99896.41;;;-0.70;100.00
35519;BME280;21627;48.216;16.482;2023-01-30T06:50:58;99917.31;;;-0.58;100.00
35519;BME280;21627;48.216;16.482;2023-01-30T06:53:26;99921.50;;;-0.58;100.00
35519;BME280;21627;48.216;16.482;2023-01-30T06:55:58;99905.25;;;-0.62;100.00
35519;BME280;21627;48.216;16.482;2023-01-30T06:58:28;99914.22;;;-0.51;100.00
35519;BME280;21627;48.216;16.482;2023-01-30T07:00:56;99922.88;;;-0.29;100.00
35519;BME280;21627;48.216;16.482;2023-01-30T07:03:23;99919.25;;;-0.34;100.00
35519;BME280;21627;48.216;16.482;2023-01-30T07:05:50;99915.16;;;-0.31;100.00
35519;BME280;21627;48.216;16.482;2023-01-30T07:08:18;99900.88;;;-0.29;100.00
35519;BME280;21627;48.216;16.482;2023-01-30T07:10:45;99893.59;;;-0.21;100.00
35519;BME280;21627;48.216;16.482;2023-01-30T07:13:12;99897.50;;;-0.10;100.00
35519;BME280;21627;48.216;16.482;2023-01-30T07:15:40;99914.91;;;0.01;99.34
35519;BME280;21627;48.216;16.482;2023-01-30T07:18:07;99921.06;;;0.06;99.79
35519;BME280;21627;48.216;16.482;2023-01-30T07:20:41;99911.09;;;0.10;98.39
35519;BME280;21627;48.216;16.482;2023-01-30T07:23:08;99913.22;;;0.01;100.00
35519;BME280;21627;48.216;16.482;2023-01-30T07:25:36;99914.91;;;0.01;100.00
35519;BME280;21627;48.216;16.482;2023-01-30T07:28:03;99917.56;;;0.04;100.00
35519;BME280;21627;48.216;16.482;2023-01-30T07:30:34;99923.47;;;0.22;99.09
35519;BME280;21627;48.216;16.482;2023-01-30T07:33:04;99939.25;;;0.15;100.00
35519;BME280;21627;48.216;16.482;2023-01-30T07:35:35;99950.34;;;0.17;100.00
35519;BME280;21627;48.216;16.482;2023-01-30T07:38:04;99944.09;;;0.28;98.09
35519;BME280;21627;48.216;16.482;2023-01-30T07:40:32;99959.41;;;0.30;98.22
35519;BME280;21627;48.216;16.482;2023-01-30T07:43:05;99952.72;;;0.32;99.74
35519;BME280;21627;48.216;16.482;2023-01-30T07:45:40;99930.47;;;0.28;100.00
35519;BME280;21627;48.216;16.482;2023-01-30T07:48:11;99943.56;;;0.35;99.80
35519;BME280;21627;48.216;16.482;2023-01-30T07:50:39;99941.41;;;0.45;100.00
35519;BME280;21627;48.216;16.482;2023-01-30T07:53:10;99904.91;;;0.44;98.39
35519;BME280;21627;48.216;16.482;2023-01-30T07:55:38;99903.53;;;0.51;93.62
35519;BME280;21627;48.216;16.482;2023-01-30T07:58:13;99896.09;;;0.76;91.13
35519;BME280;21627;48.216;16.482;2023-01-30T08:00:42;99883.94;;;0.69;91.54
35519;BME280;21627;48.216;16.482;2023-01-30T08:03:14;99905.22;;;0.71;91.74
35519;BME280;21627;48.216;16.482;2023-01-30T08:05:41;99906.28;;;0.76;93.01
35519;BME280;21627;48.216;16.482;2023-01-30T08:08:10;99913.63;;;0.90;90.24
35519;BME280;21627;48.216;16.482;2023-01-30T08:10:37;99908.53;;;0.90;88.42
35519;BME280;21627;48.216;16.482;2023-01-30T08:13:04;99896.66;;;0.90;93.36
35519;BME280;21627;48.216;16.482;2023-01-30T08:15:31;99875.13;;;0.82;94.81
35519;BME280;21627;48.216;16.482;2023-01-30T08:18:00;99881.47;;;0.92;91.52
35519;BME280;21627;48.216;16.482;2023-01-30T08:20:27;99884.44;;;1.02;89.01
35519;BME280;21627;48.216;16.482;2023-01-30T08:22:55;99871.88;;;1.07;89.86
35519;BME280;21627;48.216;16.482;2023-01-30T08:25:28;99849.50;;;0.98;88.47
35519;BME280;21627;48.216;16.482;2023-01-30T08:27:59;99859.38;;;1.13;87.28
35519;BME280;21627;48.216;16.482;2023-01-30T08:30:28;99860.09;;;1.09;89.22
35519;BME280;21627;48.216;16.482;2023-01-30T08:32:57;99848.28;;;1.11;90.63
35519;BME280;21627;48.216;16.482;2023-01-30T08:35:24;99839.16;;;1.16;89.48
35519;BME280;21627;48.216;16.482;2023-01-30T08:37:51;99835.25;;;1.26;85.73
35519;BME280;21627;48.216;16.482;2023-01-30T08:40:19;99817.78;;;1.35;82.65
35519;BME280;21627;48.216;16.482;2023-01-30T08:42:46;99830.47;;;1.56;84.88
35519;BME280;21627;48.216;16.482;2023-01-30T08:45:14;99811.25;;;1.64;79.84
35519;BME280;21627;48.216;16.482;2023-01-30T08:47:41;99812.59;;;1.79;79.83
35519;BME280;21627;48.216;16.482;2023-01-30T08:50:09;99815.28;;;1.82;83.13
35519;BME280;21627;48.216;16.482;2023-01-30T08:52:40;99819.81;;;1.90;80.52
35519;BME280;21627;48.216;16.482;2023-01-30T08:55:07;99815.09;;;2.01;78.19
35519;BME280;21627;48.216;16.482;2023-01-30T08:57:35;99818.81;;;2.09;78.43
35519;BME280;21627;48.216;16.482;2023-01-30T09:00:07;99789.31;;;2.17;73.08
35519;BME280;21627;48.216;16.482;2023-01-30T09:02:35;99790.38;;;2.24;74.18
35519;BME280;21627;48.216;16.482;2023-01-30T09:05:04;99780.94;;;2.22;73.21
35519;BME280;21627;48.216;16.482;2023-01-30T09:07:32;99796.97;;;2.43;73.42
35519;BME280;21627;48.216;16.482;2023-01-30T09:09:59;99802.84;;;2.41;75.56
35519;BME280;21627;48.216;16.482;2023-01-30T09:12:27;99780.56;;;2.35;76.58
35519;BME280;21627;48.216;16.482;2023-01-30T09:14:57;99795.91;;;2.36;77.84
35519;BME280;21627;48.216;16.482;2023-01-30T09:17:26;99783.53;;;2.49;76.87
35519;BME280;21627;48.216;16.482;2023-01-30T09:19:53;99799.00;;;2.53;75.26
35519;BME280;21627;48.216;16.482;2023-01-30T09:22:21;99796.28;;;2.47;77.33
35519;BME280;21627;48.216;16.482;2023-01-30T09:24:48;99800.53;;;2.48;76.43
35519;BME280;21627;48.216;16.482;2023-01-30T09:27:15;99789.66;;;2.54;75.79
35519;BME280;21627;48.216;16.482;2023-01-30T09:29:43;99785.31;;;2.51;74.94
35519;BME280;21627;48.216;16.482;2023-01-30T09:32:11;99785.41;;;2.54;78.27
35519;BME280;21627;48.216;16.482;2023-01-30T09:34:38;99781.34;;;2.59;75.47
35519;BME280;21627;48.216;16.482;2023-01-30T09:37:06;99765.66;;;2.47;77.26
35519;BME280;21627;48.216;16.482;2023-01-30T09:39:37;99783.38;;;2.44;72.76
35519;BME280;21627;48.216;16.482;2023-01-30T09:45:25;99747.16;;;2.29;72.72
35519;BME280;21627;48.216;16.482;2023-01-30T09:48:34;99720.69;;;2.25;71.99
35519;BME280;21627;48.216;16.482;2023-01-30T09:54:20;99706.59;;;2.36;70.52
35519;BME280;21627;48.216;16.482;2023-01-30T09:57:07;99662.88;;;2.26;72.04
35519;BME280;21627;48.216;16.482;2023-01-30T10:00:14;99684.03;;;2.49;70.26
35519;BME280;21627;48.216;16.482;2023-01-30T10:11:57;99654.00;;;2.97;68.84
35519;BME280;21627;48.216;16.482;2023-01-30T10:23:24;99621.47;;;2.92;74.38
35519;BME280;21627;48.216;16.482;2023-01-30T10:26:37;99597.97;;;3.03;73.23
35519;BME280;21627;48.216;16.482;2023-01-30T10:29:05;99594.00;;;3.13;73.72
35519;BME280;21627;48.216;16.482;2023-01-30T10:32:17;99576.97;;;3.14;74.86
35519;BME280;21627;48.216;16.482;2023-01-30T10:34:53;99575.34;;;3.17;76.74
35519;BME280;21627;48.216;16.482;2023-01-30T10:37:31;99566.25;;;3.27;75.68
35519;BME280;21627;48.216;16.482;2023-01-30T10:43:11;99557.91;;;3.33;79.68
35519;BME280;21627;48.216;16.482;2023-01-30T10:49:00;99548.72;;;3.41;76.69
35519;BME280;21627;48.216;16.482;2023-01-30T10:54:43;99522.78;;;3.25;79.77
35519;BME280;21627;48.216;16.482;2023-01-30T11:00:45;99530.28;;;3.19;81.34
35519;BME280;21627;48.216;16.482;2023-01-30T11:03:33;99540.09;;;3.37;78.89
35519;BME280;21627;48.216;16.482;2023-01-30T11:06:13;99545.75;;;3.59;75.91
35519;BME280;21627;48.216;16.482;2023-01-30T11:08:46;99531.19;;;3.91;73.51
35519;BME280;21627;48.216;16.482;2023-01-30T11:14:16;99508.72;;;4.58;68.23
35519;BME280;21627;48.216;16.482;2023-01-30T11:16:52;99508.06;;;4.67;70.08
35519;BME280;21627;48.216;16.482;2023-01-30T11:19:33;99514.34;;;4.83;67.64
35519;BME280;21627;48.216;16.482;2023-01-30T11:22:04;99509.56;;;5.01;69.48
35519;BME280;21627;48.216;16.482;2023-01-30T11:24:44;99502.56;;;5.41;65.92
35519;BME280;21627;48.216;16.482;2023-01-30T11:27:29;99497.69;;;5.55;66.73
35519;BME280;21627;48.216;16.482;2023-01-30T11:30:14;99504.47;;;5.54;61.43
35519;BME280;21627;48.216;16.482;2023-01-30T11:32:47;99497.56;;;5.49;61.48
35519;BME280;21627;48.216;16.482;2023-01-30T11:37:43;99497.19;;;5.26;64.01
35519;BME280;21627;48.216;16.482;2023-01-30T11:43:04;99473.75;;;5.56;62.63
35519;BME280;21627;48.216;16.482;2023-01-30T11:45:47;99480.03;;;5.76;61.93
35519;BME280;21627;48.216;16.482;2023-01-30T11:48:22;99464.00;;;5.90;63.02
35519;BME280;21627;48.216;16.482;2023-01-30T11:51:12;99451.09;;;5.86;63.37
35519;BME280;21627;48.216;16.482;2023-01-30T11:53:47;99449.88;;;6.19;63.85
35519;BME280;21627;48.216;16.482;2023-01-30T11:58:58;99434.00;;;6.53;59.10
35519;BME280;21627;48.216;16.482;2023-01-30T12:01:34;99424.66;;;6.58;57.88
35519;BME280;21627;48.216;16.482;2023-01-30T12:04:08;99401.78;;;6.84;61.65
35519;BME280;21627;48.216;16.482;2023-01-30T12:06:40;99423.44;;;7.12;57.29
35519;BME280;21627;48.216;16.482;2023-01-30T12:09:29;99424.31;;;7.11;57.13
35519;BME280;21627;48.216;16.482;2023-01-30T12:11:57;99409.28;;;6.61;57.68
35519;BME280;21627;48.216;16.482;2023-01-30T12:14:41;99394.34;;;6.26;60.17
35519;BME280;21627;48.216;16.482;2023-01-30T12:17:22;99401.94;;;6.20;60.53
35519;BME280;21627;48.216;16.482;2023-01-30T12:23:03;99396.41;;;5.88;65.08
35519;BME280;21627;48.216;16.482;2023-01-30T12:29:04;99411.75;;;5.25;64.98
35519;BME280;21627;48.216;16.482;2023-01-30T12:31:47;99412.13;;;4.96;68.80
35519;BME280;21627;48.216;16.482;2023-01-30T12:34:23;99403.47;;;4.90;66.90
35519;BME280;21627;48.216;16.482;2023-01-30T12:37:05;99423.56;;;4.68;69.16
35519;BME280;21627;48.216;16.482;2023-01-30T12:45:30;99444.25;;;4.33;71.53
35519;BME280;21627;48.216;16.482;2023-01-30T12:53:46;99453.94;;;4.07;73.82
35519;BME280;21627;48.216;16.482;2023-01-30T13:02:19;99453.81;;;4.01;79.14
35519;BME280;21627;48.216;16.482;2023-01-30T13:07:45;99424.66;;;3.54;89.25
35519;BME280;21627;48.216;16.482;2023-01-30T13:13:58;99452.78;;;3.55;87.61
35519;BME280;21627;48.216;16.482;2023-01-30T13:20:12;99462.00;;;3.49;92.14
35519;BME280;21627;48.216;16.482;2023-01-30T13:22:48;99473.66;;;3.37;95.44
35519;BME280;21627;48.216;16.482;2023-01-30T13:25:32;99465.56;;;3.19;97.88
35519;BME280;21627;48.216;16.482;2023-01-30T13:28:35;99460.25;;;3.11;100.00
35519;BME280;21627;48.216;16.482;2023-01-30T13:31:11;99446.56;;;3.08;100.00
35519;BME280;21627;48.216;16.482;2023-01-30T13:33:43;99455.19;;;3.13;100.00
35519;BME280;21627;48.216;16.482;2023-01-30T13:36:22;99472.78;;;3.02;100.00
35519;BME280;21627;48.216;16.482;2023-01-30T13:39:04;99468.50;;;3.01;100.00
35519;BME280;21627;48.216;16.482;2023-01-30T13:41:41;99444.16;;;2.82;100.00
35519;BME280;21627;48.216;16.482;2023-01-30T13:44:27;99458.69;;;2.83;100.00
35519;BME280;21627;48.216;16.482;2023-01-30T13:47:14;99443.91;;;2.71;100.00
35519;BME280;21627;48.216;16.482;2023-01-30T13:53:33;99462.63;;;2.72;100.00
35519;BME280;21627;48.216;16.482;2023-01-30T13:56:39;99463.59;;;2.75;100.00
35519;BME280;21627;48.216;16.482;2023-01-30T14:02:36;99440.38;;;2.66;100.00
35519;BME280;21627;48.216;16.482;2023-01-30T14:05:04;99436.09;;;2.65;100.00
35519;BME280;21627;48.216;16.482;2023-01-30T14:07:40;99431.78;;;2.64;100.00
35519;BME280;21627;48.216;16.482;2023-01-30T14:20:34;99389.34;;;2.34;100.00
35519;BME280;21627;48.216;16.482;2023-01-30T14:23:23;99391.34;;;2.46;100.00
35519;BME280;21627;48.216;16.482;2023-01-30T14:25:53;99387.41;;;2.59;100.00
35519;BME280;21627;48.216;16.482;2023-01-30T14:30:57;99403.91;;;2.70;100.00
35519;BME280;21627;48.216;16.482;2023-01-30T14:38:38;99423.53;;;2.73;100.00
35519;BME280;21627;48.216;16.482;2023-01-30T14:56:48;99432.53;;;3.27;100.00
35519;BME280;21627;48.216;16.482;2023-01-30T15:02:46;99442.69;;;3.23;100.00
35519;BME280;21627;48.216;16.482;2023-01-30T15:05:22;99423.09;;;3.24;100.00
35519;BME280;21627;48.216;16.482;2023-01-30T15:13:45;99447.91;;;3.28;100.00
35519;BME280;21627;48.216;16.482;2023-01-30T15:21:58;99451.84;;;3.15;100.00
35519;BME280;21627;48.216;16.482;2023-01-30T15:28:09;99444.84;;;3.08;100.00
35519;BME280;21627;48.216;16.482;2023-01-30T15:33:25;99441.19;;;2.98;100.00
35519;BME280;21627;48.216;16.482;2023-01-30T15:35:59;99429.34;;;3.02;100.00
35519;BME280;21627;48.216;16.482;2023-01-30T15:38:43;99446.31;;;2.98;100.00
35519;BME280;21627;48.216;16.482;2023-01-30T15:41:10;99433.19;;;2.85;100.00
35519;BME280;21627;48.216;16.482;2023-01-30T15:52:18;99475.84;;;2.89;100.00
35519;BME280;21627;48.216;16.482;2023-01-30T15:54:52;99482.38;;;2.77;100.00
35519;BME280;21627;48.216;16.482;2023-01-30T15:57:33;99479.81;;;2.77;100.00
35519;BME280;21627;48.216;16.482;2023-01-30T16:00:05;99468.63;;;2.72;100.00
35519;BME280;21627;48.216;16.482;2023-01-30T16:02:35;99486.66;;;2.78;100.00
35519;BME280;21627;48.216;16.482;2023-01-30T16:05:27;99471.31;;;2.78;100.00
35519;BME280;21627;48.216;16.482;2023-01-30T16:07:56;99489.44;;;2.88;100.00
35519;BME280;21627;48.216;16.482;2023-01-30T16:10:27;99504.13;;;2.95;100.00
35519;BME280;21627;48.216;16.482;2023-01-30T16:12:57;99514.56;;;3.04;100.00